createdAt,value
2022-09-18T00:01:48.401Z,101623.28
2022-09-18T00:04:19.117Z,101622.97
2022-09-18T00:06:47.999Z,101632.91
2022-09-18T00:09:19.706Z,101627.94
2022-09-18T00:11:52.889Z,101638.25
2022-09-18T00:14:24.714Z,101639.00
2022-09-18T00:16:54.770Z,101627.69
2022-09-18T00:19:24.337Z,101628.72
2022-09-18T00:21:53.789Z,101618.28
2022-09-18T00:24:26.277Z,101619.09
2022-09-18T00:26:59.183Z,101618.38
2022-09-18T00:29:30.784Z,101621.78
2022-09-18T00:32:00.695Z,101614.59
2022-09-18T00:34:32.557Z,101611.13
2022-09-18T00:37:02.126Z,101601.53
2022-09-18T00:39:33.373Z,101598.84
2022-09-18T00:42:02.282Z,101596.22
2022-09-18T00:44:43.032Z,101604.50
2022-09-18T00:47:31.237Z,101599.72
2022-09-18T00:50:09.293Z,101597.03
2022-09-18T00:52:50.170Z,101602.31
2022-09-18T00:55:26.418Z,101601.19
2022-09-18T00:57:59.392Z,101600.47
2022-09-18T01:00:32.788Z,101595.47
2022-09-18T01:03:03.129Z,101611.97
2022-09-18T01:05:57.328Z,101609.50
2022-09-18T01:08:43.302Z,101612.59
2022-09-18T01:11:32.755Z,101623.06
2022-09-18T01:14:15.225Z,101629.88
2022-09-18T01:16:54.564Z,101633.22
2022-09-18T01:19:51.839Z,101626.94
2022-09-18T01:22:41.747Z,101632.59
2022-09-18T01:25:24.790Z,101629.56
2022-09-18T01:28:11.523Z,101625.91
2022-09-18T01:30:44.985Z,101626.09
2022-09-18T01:33:24.164Z,101631.94
2022-09-18T01:35:59.093Z,101631.31
2022-09-18T01:38:36.050Z,101627.47
2022-09-18T01:41:16.066Z,101625.56
2022-09-18T01:43:50.261Z,101616.16
2022-09-18T01:46:22.934Z,101616.47
2022-09-18T01:48:58.428Z,101615.38
2022-09-18T01:51:37.125Z,101597.09
2022-09-18T01:54:14.418Z,101596.56
2022-09-18T01:56:47.436Z,101593.84
2022-09-18T01:59:23.654Z,101588.69
2022-09-18T02:01:55.651Z,101596.88
2022-09-18T02:04:28.937Z,101594.47
2022-09-18T02:07:06.910Z,101829.16
2022-09-18T02:09:36.976Z,101691.84
2022-09-18T02:12:11.774Z,101622.88
2022-09-18T02:14:46.586Z,101600.50
2022-09-18T02:17:21.823Z,101602.31
2022-09-18T02:19:55.750Z,101593.81
2022-09-18T02:22:30.378Z,101591.59
2022-09-18T02:25:06.805Z,101601.75
2022-09-18T02:27:38.782Z,101590.63
2022-09-18T02:30:13.295Z,101591.50
2022-09-18T02:32:43.937Z,101588.13
2022-09-18T02:35:16.411Z,101589.63
2022-09-18T02:37:59.553Z,101584.84
2022-09-18T02:40:42.339Z,101578.72
2022-09-18T02:43:27.313Z,101587.22
2022-09-18T02:46:09.046Z,101596.25
2022-09-18T02:48:51.502Z,101588.75
2022-09-18T02:51:33.137Z,101580.88
2022-09-18T02:54:10.076Z,101591.16
2022-09-18T02:56:44.166Z,101594.22
2022-09-18T02:59:21.630Z,101582.69
2022-09-18T03:01:53.449Z,101577.47
2022-09-18T03:04:28.091Z,101577.81
2022-09-18T03:06:58.210Z,101574.25
2022-09-18T03:09:27.493Z,101570.41
2022-09-18T03:11:56.079Z,101575.44
2022-09-18T03:14:25.562Z,101573.78
2022-09-18T03:16:56.326Z,101576.53
2022-09-18T03:19:29.755Z,101569.63
2022-09-18T03:21:59.126Z,101562.78
2022-09-18T03:24:30.118Z,101559.63
2022-09-18T03:26:59.537Z,101562.41
2022-09-18T03:29:28.853Z,101566.31
2022-09-18T03:32:03.454Z,101557.47
2022-09-18T03:34:32.087Z,101551.56
2022-09-18T03:37:01.024Z,101549.38
2022-09-18T03:39:30.162Z,101547.63
2022-09-18T03:41:59.176Z,101550.63
2022-09-18T03:44:29.760Z,101564.38
2022-09-18T03:47:01.291Z,101561.72
2022-09-18T03:49:29.846Z,101564.22
2022-09-18T03:51:58.287Z,101560.72
2022-09-18T03:54:28.483Z,101566.38
2022-09-18T03:56:56.848Z,101570.03
2022-09-18T03:59:25.750Z,101573.63
2022-09-18T04:01:54.534Z,101562.44
2022-09-18T04:04:26.289Z,101563.22
2022-09-18T04:06:55.884Z,101560.34
2022-09-18T04:09:24.595Z,101559.44
2022-09-18T04:11:53.280Z,101557.84
2022-09-18T04:14:25.643Z,101558.56
2022-09-18T04:17:00.869Z,101561.31
2022-09-18T04:19:35.394Z,101549.53
2022-09-18T04:22:05.031Z,101550.78
2022-09-18T04:24:35.687Z,101558.47
2022-09-18T04:27:06.291Z,101545.25
2022-09-18T04:29:35.590Z,101548.91
2022-09-18T04:32:06.737Z,101556.53
2022-09-18T04:34:37.461Z,101555.66
2022-09-18T04:37:10.171Z,101547.53
2022-09-18T04:39:41.054Z,101549.34
2022-09-18T04:42:11.809Z,101535.88
2022-09-18T04:44:40.925Z,101551.66
2022-09-18T04:47:09.977Z,101549.91
2022-09-18T04:49:39.997Z,101551.00
2022-09-18T04:52:08.682Z,101547.66
2022-09-18T04:54:38.016Z,101548.84
2022-09-18T04:57:07.279Z,101549.75
2022-09-18T04:59:37.111Z,101549.25
2022-09-18T05:02:06.542Z,101552.94
2022-09-18T05:04:35.621Z,101545.38
2022-09-18T05:07:07.243Z,101543.75
2022-09-18T05:09:38.696Z,101542.63
2022-09-18T05:12:10.135Z,101540.19
2022-09-18T05:14:38.827Z,101551.53
2022-09-18T05:17:09.164Z,101546.59
2022-09-18T05:19:38.415Z,101553.81
2022-09-18T05:22:11.224Z,101552.88
2022-09-18T05:24:40.242Z,101557.38
2022-09-18T05:27:09.912Z,101554.47
2022-09-18T05:29:39.473Z,101544.22
2022-09-18T05:32:09.294Z,101544.75
2022-09-18T05:34:40.794Z,101552.06
2022-09-18T05:37:12.339Z,101549.47
2022-09-18T05:39:43.077Z,101562.53
2022-09-18T05:42:13.814Z,101803.00
2022-09-18T05:44:42.613Z,101631.28
2022-09-18T05:47:11.759Z,101559.78
2022-09-18T05:49:41.674Z,101551.88
2022-09-18T05:52:16.651Z,101559.69
2022-09-18T05:54:48.460Z,101551.34
2022-09-18T05:57:18.346Z,101554.47
2022-09-18T05:59:47.413Z,101566.38
2022-09-18T06:02:16.025Z,101555.22
2022-09-18T06:04:46.409Z,101554.13
2022-09-18T06:07:17.591Z,101541.88
2022-09-18T06:09:46.868Z,101546.03
2022-09-18T06:12:15.452Z,101547.66
2022-09-18T06:14:44.322Z,101549.72
2022-09-18T06:17:12.724Z,101546.00
2022-09-18T06:19:41.723Z,101554.50
2022-09-18T06:22:12.121Z,101538.94
2022-09-18T06:24:42.964Z,101552.94
2022-09-18T06:27:14.001Z,101555.00
2022-09-18T06:29:44.042Z,101554.88
2022-09-18T06:32:12.799Z,101558.13
2022-09-18T06:34:42.811Z,101560.94
2022-09-18T06:37:15.801Z,101554.50
2022-09-18T06:39:47.381Z,101555.38
2022-09-18T06:42:17.588Z,101554.72
2022-09-18T06:44:47.393Z,101552.00
2022-09-18T06:47:18.553Z,101560.56
2022-09-18T06:49:47.572Z,101565.19
2022-09-18T06:52:16.967Z,101564.28
2022-09-18T06:54:47.377Z,101565.63
2022-09-18T06:57:16.467Z,101556.56
2022-09-18T06:59:46.306Z,101543.44
2022-09-18T07:02:19.607Z,101544.53
2022-09-18T07:04:53.063Z,101539.56
2022-09-18T07:07:21.938Z,101550.38
2022-09-18T07:09:52.356Z,101554.53
2022-09-18T07:12:20.843Z,101555.84
2022-09-18T07:14:49.662Z,101557.66
2022-09-18T07:17:24.296Z,101553.41
2022-09-18T07:19:55.281Z,101560.16
2022-09-18T07:22:24.126Z,101559.34
2022-09-18T07:24:56.957Z,101549.34
2022-09-18T07:27:25.775Z,101542.16
2022-09-18T07:29:57.128Z,101550.13
2022-09-18T07:32:26.153Z,101549.03
2022-09-18T07:34:58.961Z,101545.69
2022-09-18T07:37:28.219Z,101543.59
2022-09-18T07:39:59.355Z,101555.81
2022-09-18T07:42:29.947Z,101545.88
2022-09-18T07:44:58.698Z,101552.56
2022-09-18T07:47:29.256Z,101559.81
2022-09-18T07:49:58.607Z,101555.66
2022-09-18T07:52:27.757Z,101549.00
2022-09-18T07:54:59.409Z,101546.34
2022-09-18T07:57:28.669Z,101544.59
2022-09-18T08:00:01.699Z,101546.47
2022-09-18T08:02:31.084Z,101546.22
2022-09-18T08:05:00.746Z,101549.41
2022-09-18T08:07:29.712Z,101545.94
2022-09-18T08:10:01.368Z,101538.19
2022-09-18T08:12:32.382Z,101541.63
2022-09-18T08:15:01.158Z,101540.97
2022-09-18T08:17:38.053Z,101540.47
2022-09-18T08:20:13.390Z,101541.88
2022-09-18T08:22:43.767Z,101528.09
2022-09-18T08:25:14.757Z,101534.03
2022-09-18T08:27:45.174Z,101532.16
2022-09-18T08:30:16.551Z,101528.78
2022-09-18T08:32:46.355Z,101524.22
2022-09-18T08:35:16.217Z,101541.84
2022-09-18T08:37:52.544Z,101536.53
2022-09-18T08:40:31.934Z,101547.91
2022-09-18T08:43:16.019Z,101537.44
2022-09-18T08:45:56.368Z,101546.34
2022-09-18T08:48:31.996Z,101546.69
2022-09-18T08:51:05.817Z,101542.00
2022-09-18T08:53:41.199Z,101550.22
2022-09-18T08:56:19.457Z,101534.31
2022-09-18T08:58:58.317Z,101535.56
2022-09-18T09:01:46.208Z,101542.09
2022-09-18T09:04:24.498Z,101542.19
2022-09-18T09:07:10.635Z,101539.41
2022-09-18T09:09:56.087Z,101537.19
2022-09-18T09:12:41.175Z,101534.69
2022-09-18T09:15:28.414Z,101547.16
2022-09-18T09:18:13.078Z,101532.06
2022-09-18T09:20:52.077Z,101532.09
2022-09-18T09:23:35.239Z,101549.16
2022-09-18T09:26:08.389Z,101550.41
2022-09-18T09:28:54.004Z,101547.22
2022-09-18T09:31:30.985Z,101546.97
2022-09-18T09:34:05.058Z,101542.28
2022-09-18T09:36:35.754Z,101537.19
2022-09-18T09:39:15.425Z,101542.88
2022-09-18T09:41:49.138Z,101541.09
2022-09-18T09:44:32.550Z,101539.78
2022-09-18T09:47:25.055Z,101547.41
2022-09-18T09:50:13.391Z,101550.53
2022-09-18T09:52:46.845Z,101559.63
2022-09-18T09:55:36.209Z,101552.06
2022-09-18T09:58:17.029Z,101555.59
2022-09-18T10:00:55.634Z,101549.88
2022-09-18T10:04:01.189Z,101548.00
2022-09-18T10:06:56.699Z,101545.16
2022-09-18T10:09:58.839Z,101545.38
2022-09-18T10:12:56.230Z,101549.41
2022-09-18T10:15:48.441Z,101542.56
2022-09-18T10:18:40.985Z,101543.09
2022-09-18T10:21:35.587Z,101536.91
2022-09-18T10:24:32.631Z,101545.91
2022-09-18T10:27:21.506Z,101546.53
2022-09-18T10:30:16.587Z,101555.41
2022-09-18T10:33:05.734Z,101548.28
2022-09-18T10:35:59.036Z,101545.78
2022-09-18T10:38:47.453Z,101550.72
2022-09-18T10:41:51.254Z,101540.72
2022-09-18T10:45:06.047Z,101540.63
2022-09-18T10:48:33.248Z,101539.66
2022-09-18T10:51:31.756Z,101537.03
2022-09-18T10:57:47.094Z,101547.28
2022-09-18T11:00:46.903Z,101544.38
2022-09-18T11:03:44.479Z,101544.47
2022-09-18T11:06:42.955Z,101531.13
2022-09-18T11:09:39.020Z,101536.81
2022-09-18T11:12:29.235Z,101544.94
2022-09-18T11:15:25.606Z,101547.94
2022-09-18T11:18:17.595Z,101542.84
2022-09-18T11:21:14.590Z,101528.00
2022-09-18T11:24:20.875Z,101523.38
2022-09-18T11:27:24.930Z,101524.31
2022-09-18T11:30:23.675Z,101513.25
2022-09-18T11:33:22.012Z,101525.59
2022-09-18T11:36:16.096Z,101529.94
2022-09-18T11:39:04.449Z,101523.09
2022-09-18T11:41:58.707Z,101515.09
2022-09-18T11:44:47.186Z,101518.16
2022-09-18T11:47:43.222Z,101514.50
2022-09-18T11:50:36.665Z,101517.88
2022-09-18T11:53:34.487Z,101511.66
2022-09-18T11:56:36.187Z,101517.25
2022-09-18T11:59:31.396Z,101520.59
2022-09-18T12:02:28.623Z,101530.28
2022-09-18T12:05:25.414Z,101520.09
2022-09-18T12:08:21.935Z,101519.94
2022-09-18T12:11:21.824Z,101533.63
2022-09-18T12:14:18.560Z,101530.00
2022-09-18T12:17:29.538Z,101534.28
2022-09-18T12:20:26.772Z,101535.81
2022-09-18T12:23:16.815Z,101528.44
2022-09-18T12:26:15.245Z,101538.09
2022-09-18T12:29:21.294Z,101551.28
2022-09-18T12:32:29.881Z,101535.22
2022-09-18T12:35:26.137Z,101533.72
2022-09-18T12:38:28.936Z,101535.47
2022-09-18T12:41:49.338Z,101540.19
2022-09-18T12:45:11.879Z,101553.25
2022-09-18T12:48:26.030Z,101556.03
2022-09-18T12:51:43.317Z,101550.66
2022-09-18T12:55:05.133Z,101557.19
2022-09-18T12:58:07.587Z,101565.00
2022-09-18T13:00:59.890Z,101548.22
2022-09-18T13:03:50.288Z,101560.06
2022-09-18T13:06:44.900Z,101564.69
2022-09-18T13:09:44.604Z,101553.53
2022-09-18T13:12:40.677Z,101561.81
2022-09-18T13:15:30.572Z,101566.03
2022-09-18T13:18:32.790Z,101567.31
2022-09-18T13:21:27.448Z,101568.97
2022-09-18T13:24:19.686Z,101577.22
2022-09-18T13:27:17.219Z,101567.47
2022-09-18T13:30:18.021Z,101557.50
2022-09-18T13:33:06.096Z,101557.47
2022-09-18T13:35:59.321Z,101550.25
2022-09-18T13:38:51.820Z,101554.38
2022-09-18T13:41:47.425Z,101544.84
2022-09-18T13:44:38.196Z,101544.94
2022-09-18T13:47:25.487Z,101552.28
2022-09-18T13:49:57.955Z,101543.00
2022-09-18T13:52:44.928Z,101544.00
2022-09-18T13:55:38.050Z,101545.56
2022-09-18T13:58:52.402Z,101538.72
2022-09-18T14:02:06.401Z,101535.06
2022-09-18T14:05:29.796Z,101536.72
2022-09-18T14:08:14.867Z,101524.84
2022-09-18T14:11:15.984Z,101522.09
2022-09-18T14:13:52.168Z,101528.97
2022-09-18T14:16:41.392Z,101530.47
2022-09-18T14:19:32.609Z,101527.31
2022-09-18T14:22:05.497Z,101532.66
2022-09-18T14:25:08.331Z,101532.88
2022-09-18T14:27:46.860Z,101532.81
2022-09-18T14:30:22.993Z,101534.75
2022-09-18T14:33:18.220Z,101541.06
2022-09-18T14:35:57.247Z,101539.09
2022-09-18T14:38:34.578Z,101541.38
2022-09-18T14:41:19.143Z,101548.28
2022-09-18T14:43:52.294Z,101538.28
2022-09-18T14:46:24.370Z,101536.34
2022-09-18T14:49:03.456Z,101550.31
2022-09-18T14:51:49.316Z,101542.19
2022-09-18T14:54:26.862Z,101546.16
2022-09-18T14:57:02.200Z,101541.34
2022-09-18T14:59:31.183Z,101540.75
2022-09-18T15:02:21.249Z,101543.53
2022-09-18T15:04:51.330Z,101539.84
2022-09-18T15:07:25.523Z,101537.53
2022-09-18T15:10:10.525Z,101553.81
2022-09-18T15:12:44.935Z,101555.22
2022-09-18T15:15:30.169Z,101552.16
2022-09-18T15:18:00.372Z,101551.56
2022-09-18T15:20:37.144Z,101555.44
2022-09-18T15:23:27.717Z,101551.78
2022-09-18T15:26:05.617Z,101554.47
2022-09-18T15:28:39.189Z,101558.91
2022-09-18T15:31:11.393Z,101559.56
2022-09-18T15:34:03.573Z,101575.25
2022-09-18T15:36:37.446Z,101580.22
2022-09-18T15:39:08.473Z,101566.38
2022-09-18T15:41:43.467Z,101565.16
2022-09-18T15:45:21.817Z,101570.66
2022-09-18T15:47:51.141Z,101570.25
2022-09-18T15:50:43.139Z,101554.97
2022-09-18T15:53:30.033Z,101542.75
2022-09-18T15:56:03.201Z,101533.84
2022-09-18T15:58:54.588Z,101533.50
2022-09-18T16:01:28.762Z,101529.16
2022-09-18T16:04:08.757Z,101515.56
2022-09-18T16:06:50.938Z,101525.59
2022-09-18T16:09:40.410Z,101529.06
2022-09-18T16:12:43.850Z,101533.38
2022-09-18T16:15:23.254Z,101526.72
2022-09-18T16:18:06.620Z,101534.16
2022-09-18T16:20:41.573Z,101525.31
2022-09-18T16:23:22.412Z,101536.28
2022-09-18T16:26:10.763Z,101534.25
2022-09-18T16:28:46.203Z,101543.97
2022-09-18T16:31:18.627Z,101532.22
2022-09-18T16:34:01.383Z,101535.63
2022-09-18T16:36:34.531Z,101545.44
2022-09-18T16:39:08.501Z,101547.69
2022-09-18T16:41:38.873Z,101544.03
2022-09-18T16:44:12.059Z,101547.53
2022-09-18T16:46:45.160Z,101550.69
2022-09-18T16:49:20.555Z,101541.66
2022-09-18T16:51:50.930Z,101547.03
2022-09-18T16:54:25.657Z,101548.41
2022-09-18T16:56:59.743Z,101541.88
2022-09-18T16:59:32.526Z,101550.91
2022-09-18T17:02:05.376Z,101559.06
2022-09-18T17:04:37.172Z,101552.44
2022-09-18T17:07:06.992Z,101553.13
2022-09-18T17:09:35.991Z,101561.13
2022-09-18T17:12:06.893Z,101560.28
2022-09-18T17:14:36.502Z,101556.00
2022-09-18T17:17:06.325Z,101562.09
2022-09-18T17:19:37.108Z,101562.22
2022-09-18T17:22:09.995Z,101564.78
2022-09-18T17:24:41.703Z,101565.03
2022-09-18T17:27:11.411Z,101574.19
2022-09-18T17:29:40.410Z,101569.19
2022-09-18T17:32:09.761Z,101576.81
2022-09-18T17:34:39.969Z,101583.41
2022-09-18T17:37:11.191Z,101581.59
2022-09-18T17:39:41.386Z,101581.22
2022-09-18T17:42:10.690Z,101600.53
2022-09-18T17:44:45.369Z,101596.19
2022-09-18T17:47:14.113Z,101599.66
2022-09-18T17:49:45.449Z,101602.88
2022-09-18T17:52:16.052Z,101603.22
2022-09-18T17:54:45.729Z,101610.34
2022-09-18T17:57:15.216Z,101617.75
2022-09-18T17:59:48.162Z,101611.41
2022-09-18T18:02:17.576Z,101611.19
2022-09-18T18:04:48.513Z,101616.34
2022-09-18T18:07:18.644Z,101619.94
2022-09-18T18:09:53.983Z,101616.63
2022-09-18T18:12:25.884Z,101615.69
2022-09-18T18:15:07.405Z,101623.72
2022-09-18T18:17:41.005Z,101620.25
2022-09-18T18:20:14.642Z,101629.03
2022-09-18T18:22:48.111Z,101629.81
2022-09-18T18:25:25.497Z,101640.88
2022-09-18T18:28:03.172Z,101632.13
2022-09-18T18:30:37.211Z,101634.91
2022-09-18T18:33:12.925Z,101635.44
2022-09-18T18:35:46.475Z,101642.03
2022-09-18T18:38:21.204Z,101641.34
2022-09-18T18:41:01.608Z,101643.84
2022-09-18T18:43:38.992Z,101655.66
2022-09-18T18:46:13.518Z,101659.66
2022-09-18T18:48:47.174Z,101659.69
2022-09-18T18:51:24.840Z,101657.34
2022-09-18T18:54:01.647Z,101661.00
2022-09-18T18:56:42.489Z,101669.25
2022-09-18T18:59:17.337Z,101664.69
2022-09-18T19:01:51.303Z,101676.44
2022-09-18T19:04:23.833Z,101671.84
2022-09-18T19:06:58.886Z,101675.97
2022-09-18T19:09:31.831Z,101677.34
2022-09-18T19:12:07.680Z,101677.78
2022-09-18T19:14:42.226Z,101681.09
2022-09-18T19:17:16.896Z,101694.00
2022-09-18T19:19:48.707Z,101697.50
2022-09-18T19:22:21.369Z,101693.44
2022-09-18T19:24:53.730Z,101709.41
2022-09-18T19:27:27.332Z,101709.72
2022-09-18T19:30:02.219Z,101715.97
2022-09-18T19:32:36.347Z,101715.56
2022-09-18T19:35:07.635Z,101725.50
2022-09-18T19:37:41.081Z,101715.16
2022-09-18T19:40:18.367Z,101721.84
2022-09-18T19:42:57.288Z,101717.63
2022-09-18T19:45:31.953Z,101716.47
2022-09-18T19:48:05.077Z,101712.88
2022-09-18T19:50:40.660Z,101715.69
2022-09-18T19:53:11.018Z,101714.03
2022-09-18T19:55:40.819Z,101715.22
2022-09-18T19:58:15.340Z,101708.56
2022-09-18T20:00:47.497Z,101709.44
2022-09-18T20:03:19.369Z,101708.63
2022-09-18T20:05:50.911Z,101723.69
2022-09-18T20:08:24.433Z,101726.56
2022-09-18T20:11:00.540Z,101740.25
2022-09-18T20:13:56.603Z,101745.66
2022-09-18T20:16:33.123Z,101740.34
2022-09-18T20:19:05.627Z,101741.63
2022-09-18T20:21:40.783Z,101745.66
2022-09-18T20:24:18.717Z,101745.56
2022-09-18T20:26:48.660Z,101751.56
2022-09-18T20:29:17.597Z,101756.34
2022-09-18T20:31:49.968Z,101752.38
2022-09-18T20:34:22.692Z,101763.38
2022-09-18T20:36:55.009Z,101762.03
2022-09-18T20:39:25.619Z,101770.56
2022-09-18T20:42:00.425Z,101761.00
2022-09-18T20:44:29.794Z,101764.34
2022-09-18T20:46:59.114Z,101765.81
2022-09-18T20:49:32.132Z,101757.13
2022-09-18T20:52:03.423Z,101763.69
2022-09-18T20:54:34.161Z,101767.56
2022-09-18T20:57:09.191Z,101767.53
2022-09-18T20:59:41.708Z,101757.38
2022-09-18T21:02:10.898Z,101770.38
2022-09-18T21:04:39.438Z,101773.16
2022-09-18T21:07:08.175Z,101766.25
2022-09-18T21:09:38.666Z,101777.63
2022-09-18T21:12:08.340Z,101770.69
2022-09-18T21:14:37.271Z,101785.50
2022-09-18T21:17:08.755Z,101782.47
2022-09-18T21:19:41.739Z,101767.81
2022-09-18T21:22:12.717Z,101774.53
2022-09-18T21:24:42.917Z,101781.81
2022-09-18T21:27:19.593Z,101772.22
2022-09-18T21:29:49.462Z,101779.63
2022-09-18T21:32:18.539Z,101778.66
2022-09-18T21:34:49.035Z,101778.88
2022-09-18T21:37:19.439Z,101780.97
2022-09-18T21:39:50.315Z,101778.94
2022-09-18T21:42:20.191Z,101783.78
2022-09-18T21:44:50.443Z,101776.06
2022-09-18T21:47:20.302Z,101782.19
2022-09-18T21:49:49.210Z,101779.63
2022-09-18T21:52:17.800Z,101791.09
2022-09-18T21:54:47.663Z,101784.16
2022-09-18T21:57:18.702Z,101790.22
2022-09-18T21:59:51.817Z,101799.28
2022-09-18T22:02:22.065Z,101802.19
2022-09-18T22:04:52.309Z,101803.44
2022-09-18T22:07:20.663Z,101802.16
2022-09-18T22:09:50.548Z,101803.91
2022-09-18T22:12:22.301Z,101808.25
2022-09-18T22:14:51.468Z,101803.06
2022-09-18T22:17:20.451Z,101807.88
2022-09-18T22:19:49.425Z,101812.41
2022-09-18T22:22:19.464Z,101817.81
2022-09-18T22:24:48.875Z,101813.56
2022-09-18T22:27:18.220Z,101819.22
2022-09-18T22:29:48.502Z,101823.16
2022-09-18T22:32:17.548Z,101823.09
2022-09-18T22:34:49.006Z,101814.91
2022-09-18T22:37:20.510Z,101818.66
2022-09-18T22:39:48.912Z,101824.88
2022-09-18T22:42:18.240Z,101818.66
2022-09-18T22:44:50.678Z,101821.00
2022-09-18T22:47:19.020Z,101825.06
2022-09-18T22:49:47.753Z,101820.63
2022-09-18T22:52:17.892Z,101825.03
2022-09-18T22:54:46.197Z,101827.66
2022-09-18T22:57:16.153Z,101837.47
2022-09-18T22:59:46.912Z,101837.47
2022-09-18T23:02:19.256Z,101835.16
2022-09-18T23:04:48.266Z,101840.75
2022-09-18T23:07:19.937Z,101839.03
2022-09-18T23:09:51.066Z,101842.97
2022-09-18T23:12:19.664Z,101848.28
2022-09-18T23:14:48.744Z,101835.72
2022-09-18T23:17:21.082Z,101846.56
2022-09-18T23:19:49.793Z,101848.38
2022-09-18T23:22:18.452Z,101849.16
2022-09-18T23:24:49.185Z,101851.75
2022-09-18T23:27:17.540Z,101844.91
2022-09-18T23:29:48.603Z,101846.03
2022-09-18T23:32:21.055Z,101850.22
2022-09-18T23:34:50.557Z,101847.06
2022-09-18T23:37:19.716Z,101845.25
2022-09-18T23:39:49.030Z,101862.25
2022-09-18T23:42:17.876Z,101855.41
2022-09-18T23:44:48.746Z,101863.09
2022-09-18T23:47:18.982Z,101855.59
2022-09-18T23:49:48.736Z,101861.44
2022-09-18T23:52:21.304Z,101863.03
2022-09-18T23:54:50.648Z,101855.50
2022-09-18T23:57:19.419Z,101866.84
2022-09-18T23:59:54.574Z,101862.44
